Terminal Aerodrome Forecast
Issued by NWS

Home | Current Version | Previous Version | Text Only | Print | Product List | Glossary On
Versions: 1 2 3 4 5 6 7 8 9 10 11 12 13 14 15 16 17 18 19 20 21 22
000
FTUS45 KBOU 212043 AAA
TAFAPA
TAF AMD
KAPA 212043Z 2121/2218 01006KT P6SM FEW120 SCT220
     FM212130 26015G22KT P6SM VCTS SCT080CB BKN120
      TEMPO 2122/2124 -TSRA BKN080CB
     FM220000 31010KT P6SM VCSH FEW080 BKN120 BKN200
     FM220200 22007KT P6SM FEW070 SCT100 BKN200
     FM220600 19006KT P6SM FEW060 SCT090 BKN120
     FM221500 33006KT P6SM FEW120 SCT200=

USA.gov is the U.S. government's official web portal to all federal, state and local government web resources and services.